createdAt,value
2023-04-30T00:02:56.190Z,98720.84
2023-04-30T00:05:58.103Z,98730.16
2023-04-30T00:09:00.024Z,98730.84
2023-04-30T00:12:01.929Z,98728.97
2023-04-30T00:15:04.566Z,98720.97
2023-04-30T00:18:07.263Z,98716.47
2023-04-30T00:21:09.423Z,98707.13
2023-04-30T00:24:11.337Z,98696.47
2023-04-30T00:27:13.237Z,98695.81
2023-04-30T00:30:15.437Z,98711.31
2023-04-30T00:33:17.300Z,98707.47
2023-04-30T00:36:19.464Z,98693.78
2023-04-30T00:39:21.378Z,98695.78
2023-04-30T00:42:24.231Z,98701.13
2023-04-30T00:45:26.731Z,98698.28
2023-04-30T00:48:29.013Z,98697.78
2023-04-30T00:51:35.368Z,98694.13
2023-04-30T00:54:37.447Z,98676.09
2023-04-30T00:57:41.070Z,98653.78
2023-04-30T01:00:47.296Z,98651.59
2023-04-30T01:03:49.463Z,98648.25
2023-04-30T01:06:52.155Z,98629.44
2023-04-30T01:09:54.884Z,98629.44
2023-04-30T01:13:01.954Z,98615.59
2023-04-30T01:16:10.509Z,98613.59
2023-04-30T01:19:28.485Z,98621.25
2023-04-30T01:22:55.285Z,98615.59
2023-04-30T01:26:28.839Z,98608.41
2023-04-30T01:29:32.811Z,98607.41
2023-04-30T01:32:34.778Z,98600.56
2023-04-30T01:35:54.803Z,98598.25
2023-04-30T01:39:11.572Z,98588.75
2023-04-30T01:42:19.668Z,98584.59
2023-04-30T01:45:27.252Z,98578.44
2023-04-30T01:48:41.660Z,98565.75
2023-04-30T01:51:48.384Z,98568.41
2023-04-30T01:54:59.374Z,98557.75
2023-04-30T01:58:03.541Z,98549.09
2023-04-30T02:01:05.593Z,98548.94
2023-04-30T02:04:07.585Z,98540.06
2023-04-30T02:07:09.547Z,98533.25
2023-04-30T02:10:12.527Z,98529.56
2023-04-30T02:13:14.367Z,98516.91
2023-04-30T02:16:16.466Z,98511.75
2023-04-30T02:19:18.403Z,98501.25
2023-04-30T02:22:20.442Z,98496.44
2023-04-30T02:25:22.442Z,98495.09
2023-04-30T02:28:24.405Z,98505.41
2023-04-30T02:31:26.345Z,98509.09
2023-04-30T02:34:28.309Z,98508.44
2023-04-30T02:37:30.230Z,98518.06
2023-04-30T02:40:32.131Z,98521.72
2023-04-30T02:43:34.063Z,98522.06
2023-04-30T02:46:36.015Z,98529.88
2023-04-30T02:49:38.002Z,98515.75
2023-04-30T02:52:39.941Z,98509.59
2023-04-30T02:55:41.930Z,98506.09
2023-04-30T02:58:44.408Z,98506.09
2023-04-30T03:01:46.631Z,98524.09
2023-04-30T03:04:48.518Z,98517.41
2023-04-30T03:07:50.500Z,98517.44
2023-04-30T03:10:52.474Z,98506.94
2023-04-30T03:13:55.501Z,98502.78
2023-04-30T03:16:57.403Z,98490.44
2023-04-30T03:19:59.307Z,98484.13
2023-04-30T03:23:01.155Z,98465.47
2023-04-30T03:26:02.973Z,98468.28
2023-04-30T03:29:04.904Z,98473.13
2023-04-30T03:32:06.714Z,98472.44
2023-04-30T03:35:08.899Z,98465.13
2023-04-30T03:38:10.944Z,98452.81
2023-04-30T03:41:12.906Z,98464.63
2023-04-30T03:44:16.198Z,98462.31
2023-04-30T03:47:18.400Z,98451.81
2023-04-30T03:50:20.378Z,98467.13
2023-04-30T03:53:22.328Z,98480.44
2023-04-30T03:56:25.909Z,98486.78
2023-04-30T03:59:28.303Z,98488.78
2023-04-30T04:02:31.985Z,98495.44
2023-04-30T04:05:33.973Z,98493.59
2023-04-30T04:08:36.786Z,98471.28
2023-04-30T04:11:38.722Z,98475.44
2023-04-30T04:14:40.595Z,98470.13
2023-04-30T04:17:42.611Z,98475.28
2023-04-30T04:20:45.086Z,98465.28
2023-04-30T04:23:46.970Z,98469.47
2023-04-30T04:26:48.957Z,98465.47
2023-04-30T04:29:51.299Z,98463.28
2023-04-30T04:32:54.172Z,98463.13
2023-04-30T04:35:57.960Z,98464.97
2023-04-30T04:39:04.019Z,98476.63
2023-04-30T04:42:05.973Z,98467.97
2023-04-30T04:45:08.550Z,98478.94
2023-04-30T04:48:10.492Z,98471.78
2023-04-30T04:51:12.778Z,98467.47
2023-04-30T04:54:14.811Z,98464.97
2023-04-30T04:57:16.760Z,98453.97
2023-04-30T05:00:19.214Z,98456.16
2023-04-30T05:03:21.469Z,98455.31
2023-04-30T05:06:25.087Z,98447.50
2023-04-30T05:09:27.861Z,98446.66
2023-04-30T05:12:29.711Z,98452.66
2023-04-30T05:15:31.677Z,98447.81
2023-04-30T05:18:33.580Z,98454.16
2023-04-30T05:21:36.506Z,98459.16
2023-04-30T05:24:38.221Z,98463.16
2023-04-30T05:27:40.090Z,98461.81
2023-04-30T05:30:41.915Z,98473.31
2023-04-30T05:33:43.959Z,98467.97
2023-04-30T05:36:45.915Z,98469.16
2023-04-30T05:39:49.095Z,98478.16
2023-04-30T05:42:51.059Z,98463.31
2023-04-30T05:45:52.913Z,98469.81
2023-04-30T05:48:54.833Z,98473.47
2023-04-30T05:51:56.774Z,98473.47
2023-04-30T05:54:58.744Z,98468.47
2023-04-30T05:58:00.815Z,98468.47
2023-04-30T06:01:02.851Z,98469.28
2023-04-30T06:04:05.252Z,98455.44
2023-04-30T06:07:07.218Z,98450.25
2023-04-30T06:10:09.867Z,98456.75
2023-04-30T06:13:11.754Z,98467.25
2023-04-30T06:16:13.648Z,98454.41
2023-04-30T06:19:16.213Z,98461.41
2023-04-30T06:22:18.166Z,98452.91
2023-04-30T06:25:21.064Z,98444.06
2023-04-30T06:28:22.949Z,98449.09
2023-04-30T06:31:25.110Z,98454.41
2023-04-30T06:34:27.124Z,98445.41
2023-04-30T06:37:29.052Z,98436.72
2023-04-30T06:40:31.000Z,98435.53
2023-04-30T06:43:32.825Z,98426.53
2023-04-30T06:46:34.973Z,98430.53
2023-04-30T06:49:36.976Z,98434.22
2023-04-30T06:52:39.329Z,98435.34
2023-04-30T06:55:41.975Z,98437.50
2023-04-30T06:58:43.905Z,98443.34
2023-04-30T07:01:45.752Z,98440.00
2023-04-30T07:04:47.664Z,98446.53
2023-04-30T07:07:49.573Z,98437.16
2023-04-30T07:10:51.486Z,98440.50
2023-04-30T07:13:53.806Z,98432.63
2023-04-30T07:16:56.416Z,98434.25
2023-04-30T07:19:58.470Z,98431.91
2023-04-30T07:23:00.306Z,98436.88
2023-04-30T07:26:02.202Z,98432.22
2023-04-30T07:29:04.863Z,98418.25
2023-04-30T07:32:06.786Z,98414.69
2023-04-30T07:35:09.108Z,98410.69
2023-04-30T07:38:11.177Z,98411.16
2023-04-30T07:41:13.269Z,98413.81
2023-04-30T07:44:15.330Z,98408.47
2023-04-30T07:47:17.715Z,98412.66
2023-04-30T07:50:20.049Z,98403.81
2023-04-30T07:53:21.895Z,98402.31
2023-04-30T07:56:23.706Z,98393.59
2023-04-30T07:59:25.660Z,98403.44
2023-04-30T08:02:27.841Z,98399.75
2023-04-30T08:05:29.971Z,98397.75
2023-04-30T08:08:31.840Z,98390.34
2023-04-30T08:11:33.766Z,98390.50
2023-04-30T08:14:35.831Z,98391.56
2023-04-30T08:17:37.848Z,98393.41
2023-04-30T08:20:39.876Z,98386.06
2023-04-30T08:23:41.914Z,98382.06
2023-04-30T08:26:43.805Z,98373.81
2023-04-30T08:29:45.827Z,98366.94
2023-04-30T08:32:49.052Z,98361.25
2023-04-30T08:35:51.166Z,98373.88
2023-04-30T08:38:53.155Z,98378.69
2023-04-30T08:42:02.354Z,98373.19
2023-04-30T08:45:05.209Z,98372.09
2023-04-30T08:48:11.604Z,98372.69
2023-04-30T08:51:13.532Z,98373.81
2023-04-30T08:54:17.777Z,98380.81
2023-04-30T08:57:19.659Z,98386.63
2023-04-30T09:00:21.790Z,98396.13
2023-04-30T09:03:23.807Z,98388.22
2023-04-30T09:06:27.394Z,98386.75
2023-04-30T09:09:31.093Z,98391.09
2023-04-30T09:12:33.050Z,98386.88
2023-04-30T09:15:36.907Z,98379.59
2023-04-30T09:18:42.121Z,98380.06
2023-04-30T09:21:44.050Z,98372.03
2023-04-30T09:24:48.307Z,98373.22
2023-04-30T09:28:07.561Z,98372.22
2023-04-30T09:31:21.104Z,98373.34
2023-04-30T09:34:35.467Z,98367.16
2023-04-30T09:37:38.506Z,98375.19
2023-04-30T09:40:42.633Z,98374.81
2023-04-30T09:43:47.307Z,98385.78
2023-04-30T09:46:51.124Z,98399.63
2023-04-30T09:49:53.917Z,98395.13
2023-04-30T09:53:07.067Z,98394.66
2023-04-30T09:56:11.834Z,98399.81
2023-04-30T09:59:15.041Z,98410.44
2023-04-30T10:02:17.445Z,98414.47
2023-04-30T10:05:19.717Z,98418.81
2023-04-30T10:08:27.070Z,98420.13
2023-04-30T10:11:35.881Z,98419.75
2023-04-30T10:14:38.022Z,98422.41
2023-04-30T10:17:41.692Z,98429.25
2023-04-30T10:20:48.937Z,98420.66
2023-04-30T10:23:51.980Z,98425.00
2023-04-30T10:26:55.115Z,98427.13
2023-04-30T10:29:58.111Z,98426.22
2023-04-30T10:33:16.877Z,98428.34
2023-04-30T10:36:33.891Z,98437.84
2023-04-30T10:39:37.845Z,98445.59
2023-04-30T10:42:45.968Z,98445.50
2023-04-30T10:45:48.759Z,98446.41
2023-04-30T10:48:54.955Z,98449.66
2023-04-30T10:52:00.772Z,98452.31
2023-04-30T10:55:07.555Z,98453.28
2023-04-30T10:58:27.418Z,98449.09
2023-04-30T11:01:29.888Z,98448.56
2023-04-30T11:04:31.803Z,98450.22
2023-04-30T11:07:34.584Z,98446.91
2023-04-30T11:10:36.571Z,98439.78
2023-04-30T11:13:45.337Z,98440.03
2023-04-30T11:16:51.323Z,98438.66
2023-04-30T11:19:54.348Z,98430.25
2023-04-30T11:23:15.707Z,98438.28
2023-04-30T11:26:24.820Z,98436.34
2023-04-30T11:29:27.099Z,98440.88
2023-04-30T11:32:37.412Z,98431.03
2023-04-30T11:35:39.759Z,98436.84
2023-04-30T11:38:41.869Z,98446.94
2023-04-30T11:41:43.765Z,98438.84
2023-04-30T11:44:46.284Z,98435.34
2023-04-30T11:47:50.575Z,98437.38
2023-04-30T11:50:52.547Z,98441.06
2023-04-30T11:53:54.642Z,98443.09
2023-04-30T11:57:02.344Z,98443.84
2023-04-30T12:00:21.312Z,98450.88
2023-04-30T12:03:23.320Z,98446.72
2023-04-30T12:06:27.821Z,98437.91
2023-04-30T12:09:30.217Z,98429.16
2023-04-30T12:12:32.621Z,98430.25
2023-04-30T12:15:34.494Z,98429.69
2023-04-30T12:18:36.438Z,98424.25
2023-04-30T12:21:40.287Z,98437.28
2023-04-30T12:24:42.221Z,98436.25
2023-04-30T12:27:53.550Z,98437.28
2023-04-30T12:30:55.810Z,98443.00
2023-04-30T12:33:57.744Z,98443.66
2023-04-30T12:37:00.179Z,98447.72
2023-04-30T12:40:02.678Z,98446.78
2023-04-30T12:43:07.152Z,98451.56
2023-04-30T12:46:09.228Z,98447.91
2023-04-30T12:49:11.476Z,98451.78
2023-04-30T12:52:14.218Z,98444.94
2023-04-30T12:55:19.672Z,98440.59
2023-04-30T12:58:22.421Z,98440.97
2023-04-30T13:01:25.479Z,98430.91
2023-04-30T13:04:27.895Z,98440.44
2023-04-30T13:07:38.711Z,98447.63
2023-04-30T13:10:40.790Z,98444.13
2023-04-30T13:13:42.691Z,98453.53
2023-04-30T13:16:44.628Z,98459.72
2023-04-30T13:19:46.743Z,98458.59
2023-04-30T13:22:48.860Z,98461.19
2023-04-30T13:25:50.694Z,98462.94
2023-04-30T13:28:52.651Z,98473.66
2023-04-30T13:31:54.591Z,98476.34
2023-04-30T13:34:56.862Z,98474.84
2023-04-30T13:38:02.450Z,98480.31
2023-04-30T13:41:04.503Z,98489.63
2023-04-30T13:44:06.554Z,98471.34
2023-04-30T13:47:10.341Z,98480.94
2023-04-30T13:50:12.405Z,98481.41
2023-04-30T13:53:14.486Z,98471.53
2023-04-30T13:56:16.429Z,98473.56
2023-04-30T13:59:19.257Z,98469.78
2023-04-30T14:02:21.294Z,98469.50
2023-04-30T14:05:23.212Z,98460.47
2023-04-30T14:08:25.189Z,98454.44
2023-04-30T14:11:27.582Z,98452.88
2023-04-30T14:14:29.762Z,98461.75
2023-04-30T14:17:32.171Z,98448.81
2023-04-30T14:20:34.059Z,98444.66
2023-04-30T14:23:36.382Z,98442.09
2023-04-30T14:26:39.182Z,98449.00
2023-04-30T14:29:41.193Z,98453.44
2023-04-30T14:32:43.033Z,98450.22
2023-04-30T14:35:45.662Z,98453.53
2023-04-30T14:38:47.748Z,98456.66
2023-04-30T14:41:51.140Z,98456.47
2023-04-30T14:44:53.641Z,98455.28
2023-04-30T14:47:55.588Z,98448.19
2023-04-30T14:50:57.500Z,98461.38
2023-04-30T14:53:59.498Z,98462.13
2023-04-30T14:57:03.463Z,98467.84
2023-04-30T15:00:06.901Z,98469.59
2023-04-30T15:03:09.017Z,98478.09
2023-04-30T15:06:11.296Z,98471.81
2023-04-30T15:09:13.917Z,98480.75
2023-04-30T15:12:15.794Z,98479.91
2023-04-30T15:15:18.857Z,98483.31
2023-04-30T15:18:21.013Z,98475.00
2023-04-30T15:21:22.986Z,98480.34
2023-04-30T15:24:25.126Z,98476.75
2023-04-30T15:27:31.799Z,98473.41
2023-04-30T15:30:34.328Z,98477.75
2023-04-30T15:33:42.136Z,98477.13
2023-04-30T15:36:44.160Z,98474.44
2023-04-30T15:39:47.799Z,98474.63
2023-04-30T15:42:51.024Z,98471.75
2023-04-30T15:45:53.168Z,98463.72
2023-04-30T15:48:55.126Z,98462.72
2023-04-30T15:51:57.067Z,98463.44
2023-04-30T15:55:00.563Z,98475.16
2023-04-30T15:58:02.448Z,98476.16
2023-04-30T16:01:04.583Z,98485.03
2023-04-30T16:04:07.029Z,98485.03
2023-04-30T16:07:09.315Z,98496.19
2023-04-30T16:10:11.838Z,98504.28
2023-04-30T16:13:13.964Z,98501.63
2023-04-30T16:16:16.781Z,98516.34
2023-04-30T16:19:18.814Z,98506.69
2023-04-30T16:22:21.720Z,98510.72
2023-04-30T16:25:23.553Z,98516.41
2023-04-30T16:28:28.392Z,98516.25
2023-04-30T16:31:30.861Z,98527.13
2023-04-30T16:34:32.750Z,98535.69
2023-04-30T16:37:35.090Z,98538.00
2023-04-30T16:40:37.400Z,98535.13
2023-04-30T16:43:39.408Z,98542.34
2023-04-30T16:46:41.965Z,98541.50
2023-04-30T16:49:44.688Z,98546.38
2023-04-30T16:52:47.270Z,98553.22
2023-04-30T16:55:51.801Z,98551.53
2023-04-30T16:58:54.887Z,98546.19
2023-04-30T17:01:58.712Z,98553.09
2023-04-30T17:05:00.855Z,98563.13
2023-04-30T17:08:03.291Z,98563.13
2023-04-30T17:11:06.429Z,98559.44
2023-04-30T17:14:08.749Z,98562.94
2023-04-30T17:17:10.765Z,98562.94
2023-04-30T17:20:12.678Z,98565.97
2023-04-30T17:23:14.601Z,98573.16
2023-04-30T17:26:18.372Z,98567.34
2023-04-30T17:29:21.141Z,98562.34
2023-04-30T17:32:23.383Z,98579.41
2023-04-30T17:35:25.673Z,98562.88
2023-04-30T17:38:28.354Z,98561.03
2023-04-30T17:41:30.484Z,98562.03
2023-04-30T17:44:33.732Z,98557.88
2023-04-30T17:47:35.820Z,98550.69
2023-04-30T17:50:37.838Z,98551.34
2023-04-30T17:53:40.643Z,98551.03
2023-04-30T17:56:42.764Z,98550.38
2023-04-30T17:59:44.735Z,98560.44
2023-04-30T18:02:46.972Z,98557.94
2023-04-30T18:05:48.901Z,98558.75
2023-04-30T18:08:51.025Z,98560.28
2023-04-30T18:11:54.033Z,98563.44
2023-04-30T18:14:55.983Z,98563.44
2023-04-30T18:17:59.456Z,98561.13
2023-04-30T18:21:01.474Z,98555.78
2023-04-30T18:24:03.515Z,98567.47
2023-04-30T18:27:05.294Z,98559.09
2023-04-30T18:30:09.536Z,98562.13
2023-04-30T18:33:11.527Z,98563.50
2023-04-30T18:36:13.515Z,98566.66
2023-04-30T18:39:15.559Z,98558.81
2023-04-30T18:42:18.478Z,98558.16
2023-04-30T18:45:20.580Z,98560.50
2023-04-30T18:48:25.520Z,98556.84
2023-04-30T18:51:28.563Z,98562.19
2023-04-30T18:54:30.515Z,98558.66
2023-04-30T18:57:32.466Z,98559.50
2023-04-30T19:00:34.456Z,98556.00
2023-04-30T19:03:36.494Z,98550.47
2023-04-30T19:06:38.604Z,98551.50
2023-04-30T19:09:40.665Z,98544.56
2023-04-30T19:12:44.032Z,98540.34
2023-04-30T19:15:48.737Z,98534.84
2023-04-30T19:18:51.656Z,98532.34
2023-04-30T19:21:53.593Z,98534.34
2023-04-30T19:24:55.776Z,98531.50
2023-04-30T19:27:57.713Z,98528.66
2023-04-30T19:30:59.735Z,98525.53
2023-04-30T19:34:01.740Z,98524.84
2023-04-30T19:37:03.806Z,98527.69
2023-04-30T19:40:12.956Z,98533.53
2023-04-30T19:43:14.929Z,98530.19
2023-04-30T19:46:17.561Z,98531.69
2023-04-30T19:49:19.700Z,98540.03
2023-04-30T19:52:22.558Z,98537.56
2023-04-30T19:55:25.716Z,98525.53
2023-04-30T19:58:27.949Z,98535.56
2023-04-30T20:01:29.954Z,98537.72
2023-04-30T20:04:31.849Z,98542.72
2023-04-30T20:07:33.828Z,98543.56
2023-04-30T20:10:37.346Z,98558.25
2023-04-30T20:13:39.225Z,98556.06
2023-04-30T20:16:41.531Z,98553.75
2023-04-30T20:19:43.620Z,98563.78
2023-04-30T20:22:47.689Z,98566.44
2023-04-30T20:25:50.313Z,98571.28
2023-04-30T20:28:52.296Z,98571.75
2023-04-30T20:31:54.474Z,98563.91
2023-04-30T20:34:56.891Z,98570.09
2023-04-30T20:37:58.939Z,98569.25
2023-04-30T20:41:00.827Z,98575.47
2023-04-30T20:44:02.649Z,98573.94
2023-04-30T20:47:05.541Z,98569.94
2023-04-30T20:50:10.535Z,98571.13
2023-04-30T20:53:12.604Z,98581.16
2023-04-30T20:56:14.598Z,98594.84
2023-04-30T20:59:16.551Z,98603.53
2023-04-30T21:02:18.728Z,98600.69
2023-04-30T21:05:20.616Z,98598.69
2023-04-30T21:08:22.530Z,98600.00
2023-04-30T21:11:28.946Z,98592.81
2023-04-30T21:14:31.687Z,98595.00
2023-04-30T21:17:33.693Z,98584.31
2023-04-30T21:20:35.619Z,98581.66
2023-04-30T21:23:37.575Z,98584.31
2023-04-30T21:26:39.370Z,98563.31
2023-04-30T21:29:44.464Z,98558.50
2023-04-30T21:32:47.205Z,98556.84
2023-04-30T21:35:49.268Z,98561.81
2023-04-30T21:38:51.382Z,98560.34
2023-04-30T21:41:53.688Z,98554.00
2023-04-30T21:44:55.550Z,98555.66
2023-04-30T21:47:57.587Z,98566.16
2023-04-30T21:50:59.671Z,98568.66
2023-04-30T21:54:01.533Z,98567.66
2023-04-30T21:57:03.844Z,98573.66
2023-04-30T22:00:06.773Z,98589.69
2023-04-30T22:03:10.351Z,98586.19
2023-04-30T22:06:12.264Z,98581.50
2023-04-30T22:09:14.555Z,98570.16
2023-04-30T22:12:16.485Z,98572.31
2023-04-30T22:15:18.464Z,98577.00
2023-04-30T22:18:21.349Z,98579.66
2023-04-30T22:21:23.236Z,98579.00
2023-04-30T22:24:25.534Z,98584.16
2023-04-30T22:27:27.572Z,98580.00
2023-04-30T22:30:29.513Z,98583.38
2023-04-30T22:33:36.284Z,98583.69
2023-04-30T22:36:38.077Z,98585.00
2023-04-30T22:39:40.005Z,98592.88
2023-04-30T22:42:42.763Z,98593.22
2023-04-30T22:45:44.754Z,98591.38
2023-04-30T22:48:46.784Z,98592.72
2023-04-30T22:51:49.014Z,98594.72
2023-04-30T22:54:50.971Z,98586.38
2023-04-30T22:57:53.123Z,98592.22
2023-04-30T23:00:55.096Z,98592.56
2023-04-30T23:03:57.192Z,98594.06
2023-04-30T23:06:59.115Z,98588.72
2023-04-30T23:10:01.023Z,98595.38
2023-04-30T23:13:02.965Z,98581.72
2023-04-30T23:16:05.846Z,98580.03
2023-04-30T23:19:07.718Z,98588.38
2023-04-30T23:22:10.431Z,98581.53
2023-04-30T23:25:12.713Z,98583.38
2023-04-30T23:28:14.552Z,98584.72
2023-04-30T23:31:18.032Z,98579.91
2023-04-30T23:34:19.904Z,98579.03
2023-04-30T23:37:21.794Z,98583.38
2023-04-30T23:40:23.731Z,98581.38
2023-04-30T23:43:25.679Z,98579.38
2023-04-30T23:46:27.661Z,98584.22
2023-04-30T23:49:29.680Z,98580.88
2023-04-30T23:52:32.019Z,98574.72
2023-04-30T23:55:35.071Z,98573.22
2023-04-30T23:58:36.945Z,98570.72
